Time;durP1;ratioP1;P1;durP2;ratioP2;P2;SDS_P1;SDS_P2;PMS_P1;PMS_P2;Temp;Humidity;BMP_temperature;BMP_pressure;BME280_temperature;BME280_humidity;BME280_pressure;Samples;Min_cycle;Max_cycle;Signal;HPM_P1;HPM_P2
2022/09/19 00:01:22;;;;;;;0.30;0.10;;;11.20;17.60;;;;;;5117767;28;20808;-73
2022/09/19 00:03:53;;;;;;;0.53;0.10;;;11.30;12.30;;;;;;5118601;28;20440;-73
2022/09/19 00:06:23;;;;;;;0.30;0.10;;;11.30;9.00;;;;;;5117334;28;20475;-72
2022/09/19 00:08:50;;;;;;;0.50;0.10;;;11.30;1.00;;;;;;5119140;28;20535;-72
2022/09/19 00:11:19;;;;;;;0.20;0.10;;;11.30;1.00;;;;;;5116299;28;20876;-73
2022/09/19 00:13:48;;;;;;;0.20;0.10;;;11.20;1.00;;;;;;5118022;28;20449;-73
2022/09/19 00:16:19;;;;;;;0.20;0.00;;;10.90;1.00;;;;;;5114707;28;20484;-73
2022/09/19 00:18:46;;;;;;;0.30;0.10;;;10.90;16.80;;;;;;5117924;28;20453;-74
2022/09/19 00:21:21;;;;;;;0.30;0.10;;;11.00;1.00;;;;;;5117426;28;20463;-72
2022/09/19 00:26:32;;;;;;;0.30;0.10;;;10.60;1.00;;;;;;5116353;28;20512;-73
2022/09/19 00:28:59;;;;;;;0.30;0.10;;;10.40;45.30;;;;;;5118769;28;20444;-73
2022/09/19 00:31:27;;;;;;;0.20;0.10;;;10.10;32.80;;;;;;5116647;28;20551;-72
2022/09/19 00:33:55;;;;;;;0.30;0.10;;;10.10;79.50;;;;;;5117981;28;20852;-72
2022/09/19 00:36:24;;;;;;;0.20;0.10;;;10.20;90.10;;;;;;5116758;28;20488;-72
2022/09/19 00:38:51;;;;;;;0.20;0.07;;;10.30;87.00;;;;;;5118599;28;20840;-72
2022/09/19 00:41:21;;;;;;;0.30;0.10;;;10.40;86.10;;;;;;5116378;28;20456;-72
2022/09/19 00:43:51;;;;;;;0.30;0.10;;;10.60;33.00;;;;;;5118566;28;20440;-73
2022/09/19 00:46:20;;;;;;;0.30;0.10;;;10.60;1.00;;;;;;5116499;28;20543;-73
2022/09/19 00:48:51;;;;;;;0.30;0.10;;;10.50;1.00;;;;;;5118563;28;20767;-73
2022/09/19 00:51:24;;;;;;;0.60;0.10;;;10.40;1.00;;;;;;5116974;28;20876;-72
2022/09/19 00:53:51;;;;;;;0.20;0.10;;;10.00;3.60;;;;;;5118335;28;20451;-73
2022/09/19 00:56:19;;;;;;;0.20;0.10;;;10.10;70.20;;;;;;5114281;28;20506;-72
2022/09/19 00:58:48;;;;;;;0.30;0.10;;;10.20;65.10;;;;;;5118657;28;20523;-72
2022/09/19 01:01:15;;;;;;;0.20;0.10;;;10.00;11.60;;;;;;5116466;28;20456;-73
2022/09/19 01:03:42;;;;;;;0.20;0.10;;;10.10;64.30;;;;;;5117776;28;20449;-73
2022/09/19 01:06:24;;;;;;;0.30;0.10;;;10.40;32.50;;;;;;5114718;28;20445;-72
2022/09/19 01:09:17;;;;;;;0.40;0.10;;;10.70;1.00;;;;;;5117409;28;20743;-73
2022/09/19 01:12:07;;;;;;;0.20;0.10;;;10.70;1.00;;;;;;5105571;28;20459;-73
2022/09/19 01:14:51;;;;;;;0.23;0.10;;;10.60;1.00;;;;;;5103351;28;20453;-72
2022/09/19 01:17:24;;;;;;;0.20;0.10;;;10.70;1.00;;;;;;5117977;28;20588;-72
2022/09/19 01:20:18;;;;;;;0.30;0.10;;;10.60;1.00;;;;;;5114935;28;20455;-72
2022/09/19 01:23:05;;;;;;;0.20;0.10;;;10.70;1.00;;;;;;5116842;28;20445;-72
2022/09/19 01:25:46;;;;;;;0.30;0.10;;;10.80;1.00;;;;;;5115913;28;20452;-72
2022/09/19 01:28:20;;;;;;;0.27;0.10;;;10.40;1.00;;;;;;5117717;28;20480;-72
2022/09/19 01:31:16;;;;;;;0.30;0.10;;;10.10;1.00;;;;;;5117965;28;20554;-74
2022/09/19 01:33:43;;;;;;;0.20;0.10;;;10.50;1.00;;;;;;5116807;28;20445;-74
2022/09/19 01:36:14;;;;;;;0.30;0.10;;;10.70;1.00;;;;;;5117718;28;20448;-73
2022/09/19 01:38:44;;;;;;;0.30;0.10;;;10.70;1.00;;;;;;5115317;28;20503;-74
2022/09/19 01:41:12;;;;;;;0.20;0.10;;;10.70;1.00;;;;;;5117612;28;20449;-74
2022/09/19 01:43:40;;;;;;;0.30;0.10;;;10.70;1.00;;;;;;5116147;28;20554;-74
2022/09/19 01:46:17;;;;;;;0.40;0.20;;;10.40;1.00;;;;;;5116824;28;20441;-74
2022/09/19 01:48:51;;;;;;;1.43;0.10;;;10.30;1.00;;;;;;5114204;28;20474;-73
2022/09/19 01:51:26;;;;;;;0.30;0.10;;;10.20;21.60;;;;;;5117249;28;20859;-74
2022/09/19 01:54:07;;;;;;;0.27;0.10;;;10.30;3.90;;;;;;5115738;28;20546;-73
2022/09/19 01:56:42;;;;;;;0.30;0.20;;;10.30;4.80;;;;;;5114500;28;20492;-72
2022/09/19 01:59:23;;;;;;;0.40;0.10;;;10.50;1.00;;;;;;5119011;28;20444;-73
2022/09/19 02:01:56;;;;;;;0.30;0.10;;;10.50;1.00;;;;;;5116549;28;20829;-73
2022/09/19 02:04:28;;;;;;;0.30;0.10;;;10.50;1.00;;;;;;5118166;28;20449;-73
2022/09/19 02:07:03;;;;;;;0.30;0.10;;;10.20;1.00;;;;;;5115402;28;20444;-74
2022/09/19 02:09:40;;;;;;;0.30;0.10;;;10.10;1.00;;;;;;5116835;28;20447;-73
2022/09/19 02:12:10;;;;;;;0.40;0.10;;;9.80;1.00;;;;;;5117020;28;20444;-73
2022/09/19 02:14:42;;;;;;;0.30;0.10;;;9.80;5.40;;;;;;5117829;28;20499;-73
2022/09/19 02:17:14;;;;;;;0.40;0.20;;;9.80;10.30;;;;;;5114980;28;20490;-74
2022/09/19 02:19:45;;;;;;;0.30;0.10;;;9.80;1.00;;;;;;5117078;28;20456;-74
2022/09/19 02:22:18;;;;;;;0.30;0.10;;;9.90;1.00;;;;;;5114441;28;20458;-74
2022/09/19 02:24:47;;;;;;;0.30;0.10;;;9.80;1.00;;;;;;5116830;28;20448;-73
2022/09/19 02:27:23;;;;;;;0.30;0.10;;;9.70;1.00;;;;;;5116979;28;20449;-73
2022/09/19 02:29:58;;;;;;;0.30;0.10;;;9.70;1.00;;;;;;5117162;28;20440;-73
2022/09/19 02:32:26;;;;;;;0.60;0.20;;;9.60;1.00;;;;;;5115472;28;20460;-73
2022/09/19 02:34:55;;;;;;;0.20;0.10;;;9.80;6.80;;;;;;5119961;28;20445;-74
2022/09/19 02:37:30;;;;;;;0.27;0.10;;;9.70;1.00;;;;;;5120384;28;20583;-73
2022/09/19 02:40:02;;;;;;;0.30;0.10;;;9.70;24.40;;;;;;5121205;28;20448;-74
2022/09/19 02:42:37;;;;;;;0.60;0.10;;;9.70;30.00;;;;;;5117847;28;20513;-74
2022/09/19 02:45:12;;;;;;;0.30;0.10;;;9.50;1.00;;;;;;5120486;28;20452;-74
2022/09/19 02:47:47;;;;;;;0.30;0.10;;;9.60;24.80;;;;;;5118295;28;20539;-74
2022/09/19 02:50:19;;;;;;;0.20;0.10;;;9.60;2.10;;;;;;5120097;28;20463;-73
2022/09/19 02:52:48;;;;;;;0.60;0.20;;;9.70;1.00;;;;;;5119288;27;20478;-73
2022/09/19 02:55:22;;;;;;;0.30;0.10;;;9.80;8.20;;;;;;5120196;28;20535;-73
2022/09/19 02:57:52;;;;;;;0.30;0.10;;;9.80;1.00;;;;;;5117411;28;20567;-74
2022/09/19 03:00:21;;;;;;;0.30;0.10;;;9.90;1.00;;;;;;5120298;28;20559;-73
2022/09/19 03:02:56;;;;;;;0.50;0.20;;;9.90;1.00;;;;;;5117321;28;20759;-73
2022/09/19 03:05:25;;;;;;;0.30;0.10;;;9.80;1.00;;;;;;5119944;28;20449;-73
2022/09/19 03:07:59;;;;;;;1.20;0.20;;;10.10;1.00;;;;;;5118158;27;20461;-73
2022/09/19 03:10:31;;;;;;;0.40;0.17;;;10.20;1.00;;;;;;5120048;28;20510;-73
2022/09/19 03:13:00;;;;;;;0.30;0.10;;;10.20;1.00;;;;;;5118144;28;20460;-73
2022/09/19 03:15:36;;;;;;;0.93;0.30;;;10.00;1.00;;;;;;5120020;28;20495;-73
2022/09/19 03:18:05;;;;;;;2.17;0.10;;;9.60;1.00;;;;;;5118056;28;20541;-73
2022/09/19 03:20:36;;;;;;;1.63;0.20;;;9.70;1.00;;;;;;5120076;28;20542;-73
2022/09/19 03:23:03;;;;;;;0.70;0.30;;;9.80;1.00;;;;;;5116767;28;20460;-74
2022/09/19 03:25:31;;;;;;;0.30;0.10;;;9.70;1.00;;;;;;5119700;28;20444;-74
2022/09/19 03:27:57;;;;;;;0.60;0.17;;;9.50;1.00;;;;;;5117570;28;20737;-74
2022/09/19 03:30:24;;;;;;;0.40;0.10;;;9.70;1.00;;;;;;5119124;28;20445;-72
2022/09/19 03:32:53;;;;;;;0.83;0.10;;;9.80;1.00;;;;;;5116127;28;20915;-73
2022/09/19 03:35:22;;;;;;;0.30;0.20;;;9.80;1.00;;;;;;5120549;28;20943;-72
2022/09/19 03:37:50;;;;;;;0.70;0.10;;;9.80;1.00;;;;;;5116888;28;20484;-74
2022/09/19 03:40:17;;;;;;;0.60;0.20;;;9.70;1.00;;;;;;5118360;28;20449;-74
2022/09/19 03:42:46;;;;;;;0.77;0.20;;;9.80;1.00;;;;;;5115528;28;20735;-74
2022/09/19 03:45:12;;;;;;;1.60;0.20;;;10.10;1.00;;;;;;5117877;28;20449;-74
2022/09/19 03:47:39;;;;;;;1.07;0.20;;;10.20;1.00;;;;;;5114027;28;20445;-73
2022/09/19 03:50:08;;;;;;;0.40;0.10;;;10.40;1.00;;;;;;5117541;28;20452;-73
2022/09/19 03:52:36;;;;;;;1.40;0.10;;;10.40;1.00;;;;;;5115658;28;20600;-73
2022/09/19 03:55:02;;;;;;;0.63;0.10;;;10.30;1.00;;;;;;5118419;28;20449;-74
2022/09/19 03:57:29;;;;;;;0.30;0.10;;;10.30;1.00;;;;;;5105484;28;20489;-73
2022/09/19 03:59:56;;;;;;;1.97;0.20;;;10.30;1.00;;;;;;5099406;28;20869;-72
2022/09/19 04:02:23;;;;;;;0.70;0.20;;;10.60;1.00;;;;;;5096273;28;20841;-73
2022/09/19 04:04:50;;;;;;;6.53;0.20;;;10.60;1.00;;;;;;5098791;28;20465;-73
2022/09/19 04:07:19;;;;;;;0.33;0.10;;;10.50;1.00;;;;;;5096589;28;20453;-73
2022/09/19 04:09:46;;;;;;;0.33;0.10;;;10.50;1.00;;;;;;5098277;28;20454;-72
2022/09/19 04:12:13;;;;;;;2.20;0.20;;;10.30;1.00;;;;;;5097905;28;20555;-73
2022/09/19 04:14:40;;;;;;;0.40;0.20;;;10.20;1.00;;;;;;5098765;28;20448;-73
2022/09/19 04:17:09;;;;;;;0.90;0.10;;;10.40;1.00;;;;;;5093531;28;20454;-73
2022/09/19 04:19:36;;;;;;;0.80;0.20;;;10.50;1.00;;;;;;5097106;28;20446;-75
2022/09/19 04:22:02;;;;;;;0.37;0.17;;;10.40;1.00;;;;;;5095321;28;20849;-74
2022/09/19 04:24:31;;;;;;;0.50;0.20;;;10.30;1.00;;;;;;5098380;28;20765;-74
2022/09/19 04:27:06;;;;;;;0.70;0.20;;;10.30;1.00;;;;;;5095978;28;20548;-74
2022/09/19 04:29:33;;;;;;;0.40;0.10;;;10.40;1.00;;;;;;5097680;28;20484;-73
2022/09/19 04:32:02;;;;;;;0.97;0.20;;;10.40;1.00;;;;;;5095758;28;20457;-73
2022/09/19 04:34:30;;;;;;;0.47;0.10;;;10.30;1.00;;;;;;5097741;28;20544;-73
2022/09/19 04:36:59;;;;;;;2.30;0.30;;;10.70;1.00;;;;;;5094806;28;20907;-73
2022/09/19 04:39:26;;;;;;;0.40;0.20;;;10.70;1.00;;;;;;5098066;28;20540;-73
2022/09/19 04:41:54;;;;;;;0.70;0.20;;;10.70;1.00;;;;;;5093664;28;20442;-74
2022/09/19 04:44:22;;;;;;;0.77;0.13;;;10.70;1.00;;;;;;5097013;28;20765;-74
2022/09/19 04:46:50;;;;;;;3.93;0.27;;;10.70;1.00;;;;;;5092413;28;20450;-73
2022/09/19 04:49:17;;;;;;;0.97;0.27;;;10.70;1.00;;;;;;5095858;28;20450;-73
2022/09/19 04:51:45;;;;;;;2.73;0.20;;;10.80;1.00;;;;;;5093801;28;20537;-73
2022/09/19 04:54:14;;;;;;;1.77;0.10;;;10.90;1.00;;;;;;5095849;28;20771;-74
2022/09/19 04:56:43;;;;;;;0.53;0.20;;;10.70;1.00;;;;;;5101338;27;20472;-73
2022/09/19 04:59:12;;;;;;;0.70;0.20;;;10.80;1.00;;;;;;5137850;27;20480;-73
2022/09/19 05:01:39;;;;;;;1.27;0.17;;;10.80;1.00;;;;;;5136715;27;20444;-73
2022/09/19 05:04:06;;;;;;;1.50;0.20;;;10.60;1.00;;;;;;5136700;27;20738;-73
2022/09/19 05:06:33;;;;;;;0.40;0.20;;;10.50;1.00;;;;;;5137182;27;20450;-73
2022/09/19 05:09:00;;;;;;;0.43;0.20;;;10.40;1.00;;;;;;5137336;27;20777;-73
2022/09/19 05:11:27;;;;;;;1.10;0.20;;;10.30;1.00;;;;;;5135796;27;20440;-73
2022/09/19 05:13:54;;;;;;;0.30;0.10;;;10.10;1.00;;;;;;5133694;27;20791;-73
2022/09/19 05:16:22;;;;;;;0.60;0.20;;;10.30;1.00;;;;;;5135463;27;20926;-73
2022/09/19 05:18:49;;;;;;;1.17;0.30;;;10.70;1.00;;;;;;5135864;27;20574;-73
2022/09/19 05:21:17;;;;;;;2.10;0.27;;;10.70;1.00;;;;;;5137030;27;20451;-73
2022/09/19 05:23:44;;;;;;;0.50;0.20;;;10.90;1.00;;;;;;5134507;28;20459;-73
2022/09/19 05:26:15;;;;;;;1.07;0.20;;;10.90;1.00;;;;;;5138210;28;20447;-73
2022/09/19 05:28:44;;;;;;;0.80;0.30;;;11.10;1.00;;;;;;5135331;28;20922;-73
2022/09/19 05:31:12;;;;;;;0.73;0.30;;;11.00;1.00;;;;;;5135314;28;20960;-73
2022/09/19 05:33:41;;;;;;;0.63;0.20;;;11.00;1.00;;;;;;5131633;28;20451;-72
2022/09/19 05:36:08;;;;;;;0.50;0.20;;;11.10;1.00;;;;;;5133622;28;20440;-74
2022/09/19 05:38:35;;;;;;;0.70;0.20;;;11.00;1.00;;;;;;5130576;28;20614;-73
2022/09/19 05:41:04;;;;;;;0.43;0.17;;;10.90;1.00;;;;;;5135419;28;20455;-73
2022/09/19 05:43:32;;;;;;;1.20;0.20;;;10.70;1.00;;;;;;5131508;28;20734;-74
2022/09/19 05:45:59;;;;;;;0.67;0.20;;;10.70;1.00;;;;;;5136937;28;20887;-74
2022/09/19 05:48:27;;;;;;;0.70;0.13;;;10.90;1.00;;;;;;5133265;28;20758;-73
2022/09/19 05:50:55;;;;;;;0.40;0.20;;;11.10;1.00;;;;;;5136195;28;20447;-73
2022/09/19 05:56:08;;;;;;;0.80;0.20;;;11.20;1.00;;;;;;5137017;28;20414;-72
2022/09/19 05:58:36;;;;;;;0.80;0.20;;;11.30;1.00;;;;;;5133839;28;20490;-72
2022/09/19 06:01:05;;;;;;;3.13;1.00;;;11.40;1.00;;;;;;5137514;28;20436;-73
2022/09/19 06:03:33;;;;;;;1.67;0.60;;;11.40;1.00;;;;;;5136765;28;20443;-73
2022/09/19 06:06:03;;;;;;;1.57;0.20;;;11.30;1.00;;;;;;5133548;28;20443;-73
2022/09/19 06:08:31;;;;;;;3.83;0.30;;;11.20;1.00;;;;;;5137893;27;20940;-73
2022/09/19 06:11:01;;;;;;;1.50;0.20;;;11.10;1.00;;;;;;5141232;27;20436;-73
2022/09/19 06:14:13;;;;;;;0.80;0.20;;;11.00;1.00;;;;;;5138857;27;20452;-73
2022/09/19 06:16:15;;;;;;;0.87;0.30;;;11.10;1.00;;;;;;5139667;27;20440;-74
2022/09/19 06:18:42;;;;;;;1.87;0.40;;;11.10;1.00;;;;;;5138009;27;20475;-74
2022/09/19 06:21:12;;;;;;;1.70;0.20;;;11.20;1.00;;;;;;5120707;27;20464;-74
2022/09/19 06:23:39;;;;;;;1.47;0.20;;;11.30;1.00;;;;;;5133411;27;20432;-74
2022/09/19 06:26:06;;;;;;;0.57;0.20;;;11.20;1.00;;;;;;5138854;27;20474;-74
2022/09/19 06:28:33;;;;;;;0.83;0.20;;;11.00;1.00;;;;;;5134742;27;20538;-75
2022/09/19 06:31:03;;;;;;;0.60;0.20;;;11.20;1.00;;;;;;5134993;27;20456;-73
2022/09/19 06:33:30;;;;;;;0.53;0.20;;;11.40;1.00;;;;;;5137317;27;20559;-74
2022/09/19 06:35:58;;;;;;;2.10;0.20;;;11.50;1.00;;;;;;5130827;27;20563;-74
2022/09/19 06:38:27;;;;;;;1.73;0.20;;;11.40;1.00;;;;;;5125774;27;20487;-74
2022/09/19 06:40:54;;;;;;;2.33;0.20;;;11.50;1.00;;;;;;5136224;27;20839;-74
2022/09/19 06:43:21;;;;;;;0.50;0.20;;;11.60;1.00;;;;;;5136641;27;21133;-73
2022/09/19 06:45:48;;;;;;;0.80;0.20;;;11.70;1.00;;;;;;5135984;27;20502;-73
2022/09/19 06:48:15;;;;;;;0.53;0.20;;;11.70;1.00;;;;;;5127775;27;21053;-74
2022/09/19 06:50:45;;;;;;;0.60;0.27;;;11.70;1.00;;;;;;5118094;27;20448;-73
2022/09/19 06:53:12;;;;;;;0.60;0.20;;;11.60;1.00;;;;;;5120490;27;20501;-74
2022/09/19 06:55:40;;;;;;;0.80;0.20;;;11.50;1.00;;;;;;5133791;27;20550;-75
2022/09/19 06:58:08;;;;;;;4.73;0.30;;;11.50;1.00;;;;;;5137846;27;21192;-75
2022/09/19 07:00:38;;;;;;;0.30;0.20;;;11.40;1.00;;;;;;5137177;27;20456;-75
2022/09/19 07:03:11;;;;;;;1.20;0.23;;;11.60;1.00;;;;;;5139256;27;20447;-75
2022/09/19 07:05:42;;;;;;;0.60;0.27;;;11.40;1.00;;;;;;5114306;27;20460;-75
2022/09/19 07:08:09;;;;;;;2.70;0.30;;;11.50;1.00;;;;;;5117638;28;20917;-74
2022/09/19 07:10:36;;;;;;;0.97;0.20;;;11.60;1.00;;;;;;5116869;28;20466;-75
2022/09/19 07:13:06;;;;;;;2.63;0.23;;;11.70;1.00;;;;;;5116796;28;20452;-75
2022/09/19 07:15:35;;;;;;;1.00;0.50;;;11.80;1.00;;;;;;5114929;28;21459;-71
2022/09/19 07:18:02;;;;;;;1.30;0.27;;;11.90;1.00;;;;;;5118642;28;20457;-75
2022/09/19 07:20:29;;;;;;;0.73;0.30;;;11.80;1.00;;;;;;5103829;28;20461;-74
2022/09/19 07:23:04;;;;;;;0.90;0.20;;;11.80;1.00;;;;;;5094503;28;20551;-74
2022/09/19 07:25:33;;;;;;;2.00;0.20;;;11.80;1.00;;;;;;5099341;28;20504;-74
2022/09/19 07:28:02;;;;;;;0.63;0.20;;;11.80;1.00;;;;;;5100461;28;20611;-74
2022/09/19 07:30:30;;;;;;;3.00;0.30;;;11.80;1.00;;;;;;5118367;28;20527;-75
2022/09/19 07:32:58;;;;;;;0.83;0.20;;;11.70;1.00;;;;;;5113684;28;20451;-74
2022/09/19 07:35:26;;;;;;;1.00;0.20;;;11.70;1.00;;;;;;5110826;27;20947;-73
2022/09/19 07:37:53;;;;;;;0.70;0.20;;;11.90;1.00;;;;;;5107764;28;20473;-72
2022/09/19 07:40:20;;;;;;;4.53;1.33;;;12.10;1.00;;;;;;5110684;28;20453;-73
2022/09/19 07:42:50;;;;;;;0.77;0.30;;;12.20;1.00;;;;;;5113275;28;20465;-71
2022/09/19 07:45:21;;;;;;;0.53;0.20;;;12.40;1.00;;;;;;5117063;28;20469;-71
2022/09/19 07:47:50;;;;;;;0.40;0.27;;;12.60;99.90;;;;;;5115124;28;20531;-73
2022/09/19 07:50:19;;;;;;;1.70;0.30;;;12.40;99.90;;;;;;5118543;28;20896;-73
2022/09/19 07:52:47;;;;;;;1.13;0.20;;;12.30;99.90;;;;;;5115441;28;20907;-73
2022/09/19 07:55:14;;;;;;;1.10;0.30;;;12.10;1.00;;;;;;5117774;28;20504;-73
2022/09/19 07:57:51;;;;;;;0.43;0.30;;;12.10;1.00;;;;;;5111612;28;20479;-72
2022/09/19 08:00:18;;;;;;;1.40;0.30;;;12.20;1.00;;;;;;5101088;28;20477;-73
2022/09/19 08:02:55;;;;;;;1.00;0.30;;;12.40;1.00;;;;;;5114670;28;20453;-73
2022/09/19 08:05:22;;;;;;;0.70;0.40;;;12.50;99.90;;;;;;5116704;28;20456;-73
2022/09/19 08:07:50;;;;;;;0.73;0.30;;;12.80;99.90;;;;;;5114504;28;20863;-73
2022/09/19 08:10:16;;;;;;;2.40;0.27;;;12.90;99.90;;;;;;5117916;28;20451;-72
2022/09/19 08:12:44;;;;;;;0.88;0.30;;;13.00;1.00;;;;;;5115264;28;20455;-72
2022/09/19 08:15:15;;;;;;;0.77;0.30;;;12.90;3.30;;;;;;5116895;28;20753;-72
2022/09/19 08:17:43;;;;;;;0.40;0.20;;;12.90;1.00;;;;;;5115105;28;20456;-72
2022/09/19 08:20:12;;;;;;;2.00;0.27;;;12.80;23.10;;;;;;5116646;28;20472;-72
2022/09/19 08:22:38;;;;;;;2.50;0.30;;;12.60;99.90;;;;;;5116895;28;20484;-71
2022/09/19 08:25:08;;;;;;;1.00;0.30;;;12.60;99.90;;;;;;5117182;28;20474;-72
2022/09/19 08:27:37;;;;;;;0.90;0.30;;;12.70;99.90;;;;;;5108404;28;20501;-72
2022/09/19 08:30:04;;;;;;;0.90;0.30;;;12.50;99.90;;;;;;5115671;28;20444;-73
2022/09/19 08:32:31;;;;;;;1.10;0.30;;;12.60;99.90;;;;;;5113175;28;20556;-72
2022/09/19 08:34:58;;;;;;;1.23;0.30;;;12.70;99.90;;;;;;5115921;28;20451;-73
2022/09/19 08:37:27;;;;;;;0.93;0.30;;;12.80;1.00;;;;;;5108505;28;20538;-72
2022/09/19 08:42:51;;;;;;;1.20;0.30;;;13.00;8.50;;;;;;5096489;28;20539;-75
2022/09/19 08:45:27;;;;;;;1.37;0.30;;;13.20;1.00;;;;;;5099371;28;20922;-74
2022/09/19 08:47:54;;;;;;;2.30;0.60;;;13.00;99.90;;;;;;5105443;28;20449;-73
2022/09/19 08:50:25;;;;;;;1.07;0.53;;;12.90;1.00;;;;;;5105180;28;20882;-74
2022/09/19 08:52:55;;;;;;;1.23;0.30;;;13.00;1.00;;;;;;5097306;28;20884;-73
2022/09/19 08:55:24;;;;;;;1.40;0.20;;;13.20;99.90;;;;;;5113796;28;20527;-73
2022/09/19 08:57:55;;;;;;;0.70;0.30;;;13.30;1.00;;;;;;5119013;27;20569;-74
2022/09/19 09:00:24;;;;;;;1.00;0.20;;;13.20;1.00;;;;;;5125252;27;20530;-74
2022/09/19 09:02:57;;;;;;;1.63;0.20;;;13.20;1.00;;;;;;5134980;27;20494;-76
2022/09/19 09:05:38;;;;;;;1.63;0.30;;;13.10;1.00;;;;;;5119107;27;20755;-74
2022/09/19 09:08:17;;;;;;;0.30;0.20;;;13.10;1.00;;;;;;5135574;27;20747;-75
2022/09/19 09:10:54;;;;;;;1.43;0.30;;;13.40;1.00;;;;;;5117302;27;20440;-75
2022/09/19 09:13:40;;;;;;;0.77;0.40;;;13.40;1.00;;;;;;5134538;27;20535;-74
2022/09/19 09:16:16;;;;;;;1.70;0.20;;;13.70;1.00;;;;;;5123575;27;20464;-73
2022/09/19 09:19:16;;;;;;;1.40;0.30;;;13.70;25.30;;;;;;5113584;28;20461;-74
2022/09/19 09:21:59;;;;;;;0.60;0.20;;;13.90;1.00;;;;;;5057403;28;20199;-73
2022/09/19 09:24:33;;;;;;;0.50;0.30;;;13.90;1.00;;;;;;5113716;28;20441;-74
2022/09/19 09:27:05;;;;;;;0.40;0.20;;;13.80;99.90;;;;;;5127426;28;20889;-74
2022/09/19 09:29:37;;;;;;;2.27;0.30;;;13.60;99.90;;;;;;5130481;27;20845;-74
2022/09/19 09:32:15;;;;;;;2.30;0.30;;;13.40;1.00;;;;;;5120606;28;20440;-74
2022/09/19 09:34:49;;;;;;;0.50;0.20;;;13.40;1.00;;;;;;5122763;27;20446;-73
2022/09/19 09:37:22;;;;;;;1.07;0.30;;;13.50;1.00;;;;;;5127916;28;20938;-75
2022/09/19 09:40:00;;;;;;;0.90;0.30;;;13.70;1.00;;;;;;5125336;28;20486;-74
2022/09/19 09:42:37;;;;;;;1.00;0.20;;;13.80;99.90;;;;;;5118536;28;20455;-73
2022/09/19 09:45:14;;;;;;;1.30;0.40;;;13.80;1.00;;;;;;5128864;27;20443;-74
2022/09/19 09:47:50;;;;;;;1.20;0.30;;;13.90;23.10;;;;;;5127850;27;20462;-73
2022/09/19 09:50:38;;;;;;;0.50;0.30;;;13.90;99.90;;;;;;5127811;27;20479;-74
2022/09/19 09:53:17;;;;;;;1.10;0.30;;;13.90;99.90;;;;;;5122086;27;20467;-73
2022/09/19 09:58:52;;;;;;;0.40;0.30;;;14.00;1.00;;;;;;5120584;27;20450;-73
2022/09/19 10:04:20;;;;;;;1.23;0.40;;;14.20;1.00;;;;;;5122458;27;20489;-73
2022/09/19 10:06:52;;;;;;;1.30;0.40;;;14.30;1.00;;;;;;5127388;27;20552;-72
2022/09/19 10:09:24;;;;;;;1.20;0.30;;;14.40;99.90;;;;;;5138766;27;21064;-74
2022/09/19 10:11:59;;;;;;;0.97;0.40;;;14.40;91.20;;;;;;5137454;27;20959;-75
2022/09/19 10:14:39;;;;;;;0.70;0.30;;;14.40;94.60;;;;;;5121365;27;20495;-73
2022/09/19 10:17:07;;;;;;;0.80;0.30;;;14.50;99.90;;;;;;5122815;27;20501;-74
2022/09/19 10:19:42;;;;;;;1.13;0.30;;;14.80;1.00;;;;;;5131471;27;20479;-75
2022/09/19 10:22:12;;;;;;;0.93;0.20;;;15.00;1.00;;;;;;5146114;27;20464;-75
2022/09/19 10:24:59;;;;;;;1.40;0.50;;;15.10;1.00;;;;;;5142571;27;20460;-75
2022/09/19 10:27:38;;;;;;;1.87;0.50;;;15.40;99.90;;;;;;5123052;27;20452;-75
2022/09/19 10:30:19;;;;;;;0.40;0.30;;;15.40;1.00;;;;;;5137675;27;20866;-75
2022/09/19 10:32:47;;;;;;;0.43;0.30;;;15.50;99.90;;;;;;5137596;27;20693;-75
2022/09/19 10:35:26;;;;;;;1.73;0.37;;;15.60;99.90;;;;;;5130808;27;20445;-75
2022/09/19 10:38:00;;;;;;;1.23;0.30;;;15.30;99.90;;;;;;5118741;27;20502;-74
2022/09/19 10:40:33;;;;;;;1.30;0.30;;;15.00;1.00;;;;;;5122591;27;20611;-74
2022/09/19 10:43:02;;;;;;;1.10;0.30;;;14.60;1.00;;;;;;5128135;27;20431;-74
2022/09/19 10:45:37;;;;;;;0.77;0.27;;;14.90;1.00;;;;;;5132956;27;20452;-74
2022/09/19 10:48:17;;;;;;;1.03;0.30;;;15.00;1.00;;;;;;5122983;27;20463;-74
2022/09/19 10:50:48;;;;;;;1.10;0.20;;;15.20;1.00;;;;;;5127834;27;20436;-74
2022/09/19 10:53:19;;;;;;;1.47;0.30;;;14.90;1.00;;;;;;5129415;27;20451;-75
2022/09/19 10:55:47;;;;;;;0.50;0.20;;;15.00;1.00;;;;;;5116568;27;20530;-74
2022/09/19 10:58:22;;;;;;;0.60;0.30;;;15.10;1.00;;;;;;5124254;27;20474;-74
2022/09/19 11:00:52;;;;;;;1.40;0.30;;;15.30;1.00;;;;;;5116007;28;20480;-73
2022/09/19 11:03:31;;;;;;;0.73;0.33;;;15.40;1.00;;;;;;5122215;27;20444;-74
2022/09/19 11:06:13;;;;;;;1.03;0.27;;;15.30;1.00;;;;;;5135712;27;20530;-74
2022/09/19 11:08:44;;;;;;;0.60;0.20;;;15.30;1.00;;;;;;5127671;27;20460;-74
2022/09/19 11:11:37;;;;;;;1.20;0.20;;;15.50;1.00;;;;;;5131996;27;20480;-73
2022/09/19 11:14:19;;;;;;;0.50;0.20;;;15.50;1.00;;;;;;5134708;27;20485;-73
2022/09/19 11:17:08;;;;;;;0.70;0.20;;;15.70;99.90;;;;;;5133729;27;20450;-73
2022/09/19 11:19:51;;;;;;;1.40;0.20;;;15.60;99.90;;;;;;5128288;27;20472;-73
2022/09/19 11:22:32;;;;;;;1.17;0.30;;;15.80;99.90;;;;;;5126590;27;20450;-75
2022/09/19 11:25:12;;;;;;;1.20;0.30;;;15.90;99.90;;;;;;5137584;27;20507;-72
2022/09/19 11:27:55;;;;;;;0.70;0.30;;;15.90;99.90;;;;;;5130829;27;20890;-71
2022/09/19 11:30:44;;;;;;;1.50;0.30;;;15.80;99.90;;;;;;5125738;27;20442;-73
2022/09/19 11:33:30;;;;;;;0.60;0.30;;;15.90;99.90;;;;;;5118941;27;20572;-73
2022/09/19 11:36:08;;;;;;;1.03;0.27;;;15.90;99.90;;;;;;5116988;28;20502;-71
2022/09/19 11:38:42;;;;;;;0.77;0.20;;;15.90;99.90;;;;;;5113626;28;20456;-73
2022/09/19 11:41:27;;;;;;;1.43;0.30;;;16.00;99.90;;;;;;5115852;28;20483;-73
2022/09/19 11:44:08;;;;;;;1.00;0.30;;;15.90;99.90;;;;;;5114440;28;20868;-72
2022/09/19 11:46:49;;;;;;;0.60;0.30;;;15.80;99.90;;;;;;5114313;28;20437;-73
2022/09/19 11:49:52;;;;;;;1.03;0.30;;;15.40;99.90;;;;;;5117951;28;20487;-74
2022/09/19 11:52:34;;;;;;;0.50;0.20;;;15.40;1.00;;;;;;5117626;27;20891;-75
2022/09/19 11:55:17;;;;;;;0.70;0.27;;;15.30;99.90;;;;;;5137030;27;20456;-75
2022/09/19 11:57:51;;;;;;;0.97;0.20;;;15.20;1.00;;;;;;5132290;27;20814;-75
2022/09/19 12:00:20;;;;;;;0.97;0.30;;;15.10;1.00;;;;;;5131821;27;20486;-75
2022/09/19 12:03:13;;;;;;;2.43;0.40;;;15.20;1.00;;;;;;5132796;27;20547;-74
2022/09/19 12:05:53;;;;;;;0.70;0.40;;;15.30;1.00;;;;;;5126073;27;20895;-73
2022/09/19 12:08:48;;;;;;;0.60;0.20;;;15.20;1.00;;;;;;5115504;27;20479;-74
2022/09/19 12:11:20;;;;;;;1.57;0.30;;;15.10;1.00;;;;;;5102331;27;20448;-74
2022/09/19 12:13:53;;;;;;;0.60;0.20;;;15.30;1.00;;;;;;5136440;27;20724;-74
2022/09/19 12:16:25;;;;;;;0.73;0.33;;;15.30;1.00;;;;;;5140274;27;20444;-74
2022/09/19 12:18:56;;;;;;;0.47;0.27;;;15.30;1.00;;;;;;5131755;27;20501;-74
2022/09/19 12:21:26;;;;;;;0.40;0.20;;;15.50;1.00;;;;;;5133474;27;20562;-74
2022/09/19 12:26:49;;;;;;;0.70;0.30;;;15.80;1.00;;;;;;5136116;27;20457;-73
2022/09/19 12:29:23;;;;;;;0.30;0.17;;;15.80;99.90;;;;;;5136315;27;20887;-73
2022/09/19 12:31:56;;;;;;;0.68;0.20;;;15.90;1.00;;;;;;5132977;27;20437;-75
2022/09/19 12:34:35;;;;;;;0.67;0.20;;;16.10;99.90;;;;;;5135110;27;20229;-73
2022/09/19 12:37:09;;;;;;;0.60;0.20;;;16.30;99.90;;;;;;5133873;27;20625;-75
2022/09/19 12:39:42;;;;;;;0.50;0.20;;;16.30;99.90;;;;;;5136116;27;20428;-74
2022/09/19 12:42:15;;;;;;;0.70;0.30;;;16.50;99.90;;;;;;5133705;27;20452;-73
2022/09/19 12:45:01;;;;;;;1.03;0.20;;;16.30;99.90;;;;;;5135707;27;20539;-74
2022/09/19 12:47:54;;;;;;;0.40;0.20;;;16.10;99.90;;;;;;5133847;27;20546;-74
2022/09/19 12:50:32;;;;;;;1.03;0.20;;;16.20;99.90;;;;;;5135867;27;20481;-73
2022/09/19 12:53:12;;;;;;;0.60;0.30;;;15.90;99.90;;;;;;5137022;27;20444;-73
2022/09/19 12:55:45;;;;;;;1.37;0.30;;;16.00;99.90;;;;;;5131968;27;20440;-73
2022/09/19 12:58:16;;;;;;;0.40;0.20;;;16.10;99.90;;;;;;5134675;27;21167;-73
2022/09/19 13:00:45;;;;;;;2.60;0.23;;;16.20;99.90;;;;;;5135019;27;20494;-73
2022/09/19 13:03:20;;;;;;;0.80;0.20;;;16.00;99.90;;;;;;5132128;27;20451;-73
2022/09/19 13:05:53;;;;;;;0.80;0.27;;;16.10;99.90;;;;;;5135546;27;20539;-73
2022/09/19 13:08:26;;;;;;;0.43;0.20;;;16.20;99.90;;;;;;5123791;27;20445;-73
2022/09/19 13:11:08;;;;;;;1.70;0.20;;;16.30;99.90;;;;;;5120642;27;20468;-72
2022/09/19 13:13:44;;;;;;;0.50;0.20;;;16.20;99.90;;;;;;5130932;27;20459;-73
2022/09/19 13:16:14;;;;;;;0.40;0.20;;;16.10;99.90;;;;;;5133995;27;20875;-73
2022/09/19 13:24:21;;;;;;;0.53;0.30;;;15.90;99.90;;;;;;5122045;28;20456;-73
2022/09/19 13:26:54;;;;;;;0.83;0.40;;;15.40;99.90;;;;;;5137372;28;20497;-74
2022/09/19 13:29:45;;;;;;;0.50;0.20;;;15.50;1.00;;;;;;5136019;28;20550;-74
2022/09/19 13:32:34;;;;;;;0.57;0.27;;;15.60;1.00;;;;;;5115896;28;20437;-74
2022/09/19 13:35:14;;;;;;;0.50;0.27;;;15.50;1.00;;;;;;5115226;28;20903;-73
2022/09/19 13:37:51;;;;;;;1.67;0.23;;;15.50;49.80;;;;;;5115248;28;20432;-73
2022/09/19 13:40:54;;;;;;;0.30;0.20;;;15.90;94.40;;;;;;5114624;28;20480;-72
2022/09/19 13:43:30;;;;;;;0.40;0.20;;;15.80;1.00;;;;;;5031270;28;20860;-73
2022/09/19 13:46:05;;;;;;;0.80;0.63;;;16.20;1.00;;;;;;5094411;28;20563;-73